地図

経路データ

SID SEASON NUMBER BASIN SUBBASIN NAME ISO_TIME NATURE LAT LON WMO_WIND WMO_PRES WMO_AGENCY TRACK_TYPE DIST2LAND LANDFALL IFLAG USA_AGENCY USA_ATCF_ID USA_LAT USA_LON USA_RECORD USA_STATUS USA_WIND USA_PRES USA_SSHS USA_R34_NE USA_R34_SE USA_R34_SW USA_R34_NW USA_R50_NE USA_R50_SE USA_R50_SW USA_R50_NW USA_R64_NE USA_R64_SE USA_R64_SW USA_R64_NW USA_POCI USA_ROCI USA_RMW USA_EYE TOKYO_LAT TOKYO_LON TOKYO_GRADE TOKYO_WIND TOKYO_PRES TOKYO_R50_DIR TOKYO_R50_LONG TOKYO_R50_SHORT TOKYO_R30_DIR TOKYO_R30_LONG TOKYO_R30_SHORT TOKYO_LAND CMA_LAT CMA_LON CMA_CAT CMA_WIND CMA_PRES HKO_LAT HKO_LON HKO_CAT HKO_WIND HKO_PRES NEWDELHI_LAT NEWDELHI_LON NEWDELHI_GRADE NEWDELHI_WIND NEWDELHI_PRES NEWDELHI_CI NEWDELHI_DP NEWDELHI_POCI REUNION_LAT REUNION_LON REUNION_TYPE REUNION_WIND REUNION_PRES REUNION_TNUM REUNION_CI REUNION_RMW REUNION_R34_NE REUNION_R34_SE REUNION_R34_SW REUNION_R34_NW REUNION_R50_NE REUNION_R50_SE REUNION_R50_SW REUNION_R50_NW REUNION_R64_NE REUNION_R64_SE REUNION_R64_SW REUNION_R64_NW BOM_LAT BOM_LON BOM_TYPE BOM_WIND BOM_PRES BOM_TNUM BOM_CI BOM_RMW BOM_R34_NE BOM_R34_SE BOM_R34_SW BOM_R34_NW BOM_R50_NE BOM_R50_SE BOM_R50_SW BOM_R50_NW BOM_R64_NE BOM_R64_SE BOM_R64_SW BOM_R64_NW BOM_ROCI BOM_POCI BOM_EYE BOM_POS_METHOD BOM_PRES_METHOD NADI_LAT NADI_LON NADI_CAT NADI_WIND NADI_PRES WELLINGTON_LAT WELLINGTON_LON WELLINGTON_WIND WELLINGTON_PRES DS824_LAT DS824_LON DS824_STAGE DS824_WIND DS824_PRES TD9636_LAT TD9636_LON TD9636_STAGE TD9636_WIND TD9636_PRES TD9635_LAT TD9635_LON TD9635_WIND TD9635_PRES TD9635_ROCI NEUMANN_LAT NEUMANN_LON NEUMANN_CLASS NEUMANN_WIND NEUMANN_PRES MLC_LAT MLC_LON MLC_CLASS MLC_WIND MLC_PRES USA_GUST BOM_GUST BOM_GUST_PER REUNION_GUST REUNION_GUST_PER USA_SEAHGT USA_SEARAD_NE USA_SEARAD_SE USA_SEARAD_SW USA_SEARAD_NW STORM_SPEED STORM_DIR
1888043S16054 1888 14 SI MM NOT_NAMED 1888-02-12 00:00:00 TS -16.2000 53.6000 main 343 299 _________O____ -1 -16.2000 53.6000 TC 14 235
1888043S16054 1888 14 SI MM NOT_NAMED 1888-02-12 03:00:00 TS -16.6055 52.9857 main 299 259 _________P____ -1 -16.6055 52.9857 TC 14 235
1888043S16054 1888 14 SI MM NOT_NAMED 1888-02-12 06:00:00 TS -17.0000 52.4000 main 259 230 _________O____ -1 -17.0000 52.4000 TC 13 234
1888043S16054 1888 14 SI MM NOT_NAMED 1888-02-12 09:00:00 TS -17.3847 51.8569 main 233 190 _________P____ -1 -17.3847 51.8569 TC 13 233
1888043S16054 1888 14 SI MM NOT_NAMED 1888-02-12 12:00:00 TS -17.8000 51.3000 main 190 137 _________O____ -1 -17.8000 51.3000 TC 15 232
1888043S16054 1888 14 SI MM NOT_NAMED 1888-02-12 15:00:00 TS -18.2775 50.6574 main 137 84 _________P____ -1 -18.2775 50.6574 TC 16 231
1888043S16054 1888 14 SI MM NOT_NAMED 1888-02-12 18:00:00 TS -18.8000 50.0000 main 84 43 _________O____ -1 -18.8000 50.0000 TC 17 228
1888043S16054 1888 14 SI MM NOT_NAMED 1888-02-12 21:00:00 TS -19.4027 49.3257 main 38 0 _________P____ -1 -19.4027 49.3257 TC 16 226
1888043S16054 1888 14 SI MM NOT_NAMED 1888-02-13 00:00:00 TS -19.9000 48.8000 main 0 0 _________O____ -1 -19.9000 48.8000 TC 10 225
1888043S16054 1888 14 SI MM NOT_NAMED 1888-02-13 03:00:00 TS -20.1021 48.5818 main 0 0 _________P____ -1 -20.1021 48.5818 TC 4 223
1888043S16054 1888 14 SI MM NOT_NAMED 1888-02-13 06:00:00 TS -20.2000 48.5000 main 0 0 _________O____ -1 -20.2000 48.5000 TC 4 216
1888043S16054 1888 14 SI MM NOT_NAMED 1888-02-13 09:00:00 TS -20.4000 48.3500 main 0 0 _________P____ -1 -20.4000 48.3500 TC 5 215
1888043S16054 1888 14 SI MM NOT_NAMED 1888-02-13 12:00:00 TS -20.6000 48.2000 main 0 0 _________O____ -1 -20.6000 48.2000 TC 5 219
1888043S16054 1888 14 SI MM NOT_NAMED 1888-02-13 15:00:00 TS -20.7500 48.0425 main 0 0 _________P____ -1 -20.7500 48.0425 TC 4 223
1888043S16054 1888 14 SI MM NOT_NAMED 1888-02-13 18:00:00 TS -20.9000 47.9000 main 0 0 _________O____ -1 -20.9000 47.9000 TC 4 214
1888043S16054 1888 14 SI MM NOT_NAMED 1888-02-13 21:00:00 TS -21.0925 47.7925 main 0 0 _________P____ -1 -21.0925 47.7925 TC 4 205
1888043S16054 1888 14 SI MM NOT_NAMED 1888-02-14 00:00:00 TS -21.3000 47.7000 main 0 0 _________O____ -1 -21.3000 47.7000 TC 4 205
1888043S16054 1888 14 SI MM NOT_NAMED 1888-02-14 03:00:00 TS -21.4925 47.5925 main 0 0 _________P____ -1 -21.4925 47.5925 TC 4 205
1888043S16054 1888 14 SI MM NOT_NAMED 1888-02-14 06:00:00 TS -21.7000 47.5000 main 0 0 _________O____ -1 -21.7000 47.5000 TC 5 198
1888043S16054 1888 14 SI MM NOT_NAMED 1888-02-14 09:00:00 TS -21.9500 47.4350 main 0 0 _________P____ -1 -21.9500 47.4350 TC 5 190
1888043S16054 1888 14 SI MM NOT_NAMED 1888-02-14 12:00:00 TS -22.2000 47.4000 main 0 0 _________O____ -1 -22.2000 47.4000 TC 5 186
1888043S16054 1888 14 SI MM NOT_NAMED 1888-02-14 15:00:00 TS -22.4075 47.3850 main 0 0 _________P____ -1 -22.4075 47.3850 TC 4 0
1888043S16054 1888 14 SI MM NOT_NAMED 1888-02-14 18:00:00 TS -22.6000 47.4000 main 0 0 _________O____ -1 -22.6000 47.4000 TC 4 178
1888043S16054 1888 14 SI MM NOT_NAMED 1888-02-14 21:00:00 TS -22.7699 47.4127 main 0 0 _________P____ -1 -22.7699 47.4127 TC 4 168
1888043S16054 1888 14 SI MM NOT_NAMED 1888-02-15 00:00:00 TS -23.0000 47.5000 main 0 0 _________O____ -1 -23.0000 47.5000 TC 7 155
1888043S16054 1888 14 SI MM NOT_NAMED 1888-02-15 03:00:00 TS -23.3775 47.7123 main 0 0 _________P____ -1 -23.3775 47.7123 TC 9 150
1888043S16054 1888 14 SI MM NOT_NAMED 1888-02-15 06:00:00 TS -23.8000 48.0000 main 46 46 _________O____ -1 -23.8000 48.0000 TC 10 146
1888043S16054 1888 14 SI MM NOT_NAMED 1888-02-15 09:00:00 TS -24.1801 48.3074 main 84 84 _________P____ -1 -24.1801 48.3074 TC 9 142
1888043S16054 1888 14 SI MM NOT_NAMED 1888-02-15 12:00:00 TS -24.5000 48.6000 main 124 124 _________O____ -1 -24.5000 48.6000 TC 7 140
1888043S16054 1888 14 SI MM NOT_NAMED 1888-02-15 15:00:00 TS -24.7224 48.8078 main 152 152 _________P____ -1 -24.7224 48.8078 TC 5 138
1888043S16054 1888 14 SI MM NOT_NAMED 1888-02-15 18:00:00 TS -24.9000 49.0000 main 177 177 _________O____ -1 -24.9000 49.0000 TC 5 134
1888043S16054 1888 14 SI MM NOT_NAMED 1888-02-15 21:00:00 TS -25.0697 49.2056 main 203 203 _________P____ -1 -25.0697 49.2056 TC 6 131
1888043S16054 1888 14 SI MM NOT_NAMED 1888-02-16 00:00:00 TS -25.3000 49.5000 main 239 239 _________O____ -1 -25.3000 49.5000 TC 9 132
1888043S16054 1888 14 SI MM NOT_NAMED 1888-02-16 03:00:00 TS -25.6777 49.9621 main 301 301 _________P____ -1 -25.6777 49.9621 TC 12 132
1888043S16054 1888 14 SI MM NOT_NAMED 1888-02-16 06:00:00 TS -26.1000 50.5000 main 362 362 _________O____ -1 -26.1000 50.5000 TC 12 130
1888043S16054 1888 14 SI MM NOT_NAMED 1888-02-16 09:00:00 TS -26.4573 51.0004 main 424 424 _________P____ -1 -26.4573 51.0004 TC 11 128
1888043S16054 1888 14 SI MM NOT_NAMED 1888-02-16 12:00:00 TS -26.8000 51.5000 main 483 483 _________O____ -1 -26.8000 51.5000 TC 11 129
1888043S16054 1888 14 SI MM NOT_NAMED 1888-02-16 15:00:00 TS -27.1647 51.9927 main 547 547 _________P____ -1 -27.1647 51.9927 TC 11 128
1888043S16054 1888 14 SI MM NOT_NAMED 1888-02-16 18:00:00 TS -27.5000 52.5000 main 606 606 _________O____ -1 -27.5000 52.5000 TC 11 123
1888043S16054 1888 14 SI MM NOT_NAMED 1888-02-16 21:00:00 TS -27.7725 53.0577 main 673 673 _________P____ -1 -27.7725 53.0577 TC 11 117
1888043S16054 1888 14 SI MM NOT_NAMED 1888-02-17 00:00:00 TS -28.0000 53.6000 main 727 727 _________O____ -1 -28.0000 53.6000 TC 10 116
1888043S16054 1888 14 SI MM NOT_NAMED 1888-02-17 03:00:00 TS -28.2147 54.0653 main 774 774 _________P____ -1 -28.2147 54.0653 TC 9 117
1888043S16054 1888 14 SI MM NOT_NAMED 1888-02-17 06:00:00 TS -28.4000 54.5000 main 789 788 _________O____ -1 -28.4000 54.5000 TC 9 114
1888043S16054 1888 14 SI MM NOT_NAMED 1888-02-17 09:00:00 TS -28.5574 54.9577 main 806 805 _________P____ -1 -28.5574 54.9577 TC 8 111
1888043S16054 1888 14 SI MM NOT_NAMED 1888-02-17 12:00:00 TS -28.7000 55.4000 main 815 815 _________O____ -1 -28.7000 55.4000 TC 8 111
1888043S16054 1888 14 SI MM NOT_NAMED 1888-02-17 15:00:00 TS -28.8498 55.8076 main 827 827 _________P____ -1 -28.8498 55.8076 TC 8 113
1888043S16054 1888 14 SI MM NOT_NAMED 1888-02-17 18:00:00 TS -29.0000 56.2000 main 851 851 _________O____ -1 -29.0000 56.2000 TC 8 113
1888043S16054 1888 14 SI MM NOT_NAMED 1888-02-17 21:00:00 TS -29.1503 56.5973 main 877 877 _________P____ -1 -29.1503 56.5973 TC 8 113
1888043S16054 1888 14 SI MM NOT_NAMED 1888-02-18 00:00:00 TS -29.3000 57.0000 main 893 _________O____ -1 -29.3000 57.0000 TC 8 113

IBTrACS Databaseについて

本データベースは、米国NOAAが公開する1842年以降の世界の熱帯低気圧のベストトラックデータアーカイブInternational Best Track Archive for Climate Stewardship (IBTrACS)を、ウェブで閲覧しやすい形式に変換したものです。

最終更新日:2021-10-25